sensor_id;sensor_type;location;lat;lon;timestamp;temperature;humidity
54796;DHT22;40693;43.884;20.340;2023-12-20T00:01:02;102.90;2227.20
54796;DHT22;40693;43.884;20.340;2023-12-20T00:03:28;102.90;2227.20
54796;DHT22;40693;43.884;20.340;2023-12-20T00:05:54;102.90;2227.20
54796;DHT22;40693;43.884;20.340;2023-12-20T00:08:20;102.90;2227.20
54796;DHT22;40693;43.884;20.340;2023-12-20T00:10:46;102.90;2227.20
54796;DHT22;40693;43.884;20.340;2023-12-20T00:13:12;102.80;2227.20
54796;DHT22;40693;43.884;20.340;2023-12-20T00:15:38;102.80;2227.20
54796;DHT22;40693;43.884;20.340;2023-12-20T00:18:04;102.70;2227.20
54796;DHT22;40693;43.884;20.340;2023-12-20T00:20:29;102.80;2227.20
54796;DHT22;40693;43.884;20.340;2023-12-20T00:22:57;102.70;2227.20
54796;DHT22;40693;43.884;20.340;2023-12-20T00:25:26;102.60;2227.20
54796;DHT22;40693;43.884;20.340;2023-12-20T00:27:52;102.60;2227.20
54796;DHT22;40693;43.884;20.340;2023-12-20T00:30:18;102.60;2227.20
54796;DHT22;40693;43.884;20.340;2023-12-20T00:32:44;102.60;2227.20
54796;DHT22;40693;43.884;20.340;2023-12-20T00:35:15;103.00;2227.20
54796;DHT22;40693;43.884;20.340;2023-12-20T00:37:45;102.70;2227.20
54796;DHT22;40693;43.884;20.340;2023-12-20T00:40:11;102.70;2227.20
54796;DHT22;40693;43.884;20.340;2023-12-20T00:42:37;102.70;2227.20
54796;DHT22;40693;43.884;20.340;2023-12-20T00:45:03;102.70;2227.20
54796;DHT22;40693;43.884;20.340;2023-12-20T00:47:32;102.70;2227.20
54796;DHT22;40693;43.884;20.340;2023-12-20T00:49:58;102.60;2227.20
54796;DHT22;40693;43.884;20.340;2023-12-20T00:52:24;102.60;2227.20
54796;DHT22;40693;43.884;20.340;2023-12-20T00:54:50;102.50;2227.20
54796;DHT22;40693;43.884;20.340;2023-12-20T00:57:16;102.50;2227.20
54796;DHT22;40693;43.884;20.340;2023-12-20T00:59:42;102.50;2227.20
54796;DHT22;40693;43.884;20.340;2023-12-20T01:02:08;102.40;2227.20
54796;DHT22;40693;43.884;20.340;2023-12-20T01:04:34;102.50;2227.20
54796;DHT22;40693;43.884;20.340;2023-12-20T01:07:00;102.50;2227.20
54796;DHT22;40693;43.884;20.340;2023-12-20T01:09:26;102.50;2227.20
54796;DHT22;40693;43.884;20.340;2023-12-20T01:11:53;102.50;2227.20
54796;DHT22;40693;43.884;20.340;2023-12-20T01:14:19;102.50;2227.20
54796;DHT22;40693;43.884;20.340;2023-12-20T01:16:45;102.50;2227.20
54796;DHT22;40693;43.884;20.340;2023-12-20T01:19:10;102.50;2227.20
54796;DHT22;40693;43.884;20.340;2023-12-20T01:21:36;102.50;2227.20
54796;DHT22;40693;43.884;20.340;2023-12-20T01:24:02;77.70;2227.20
54796;DHT22;40693;43.884;20.340;2023-12-20T01:26:28;102.50;2227.20
54796;DHT22;40693;43.884;20.340;2023-12-20T01:28:53;102.50;2227.20
54796;DHT22;40693;43.884;20.340;2023-12-20T01:31:19;102.50;2227.20
54796;DHT22;40693;43.884;20.340;2023-12-20T01:33:45;102.40;2227.20
54796;DHT22;40693;43.884;20.340;2023-12-20T01:36:11;102.40;2227.20
54796;DHT22;40693;43.884;20.340;2023-12-20T01:38:37;102.40;2227.20
54796;DHT22;40693;43.884;20.340;2023-12-20T01:41:03;102.40;2227.20
54796;DHT22;40693;43.884;20.340;2023-12-20T01:43:30;77.70;2227.20
54796;DHT22;40693;43.884;20.340;2023-12-20T01:45:59;102.40;2227.20
54796;DHT22;40693;43.884;20.340;2023-12-20T01:48:26;77.70;2227.20
54796;DHT22;40693;43.884;20.340;2023-12-20T01:50:53;77.70;2227.20
54796;DHT22;40693;43.884;20.340;2023-12-20T01:53:21;77.70;2227.20
54796;DHT22;40693;43.884;20.340;2023-12-20T01:55:50;77.70;2227.20
54796;DHT22;40693;43.884;20.340;2023-12-20T01:58:19;77.70;2227.20
54796;DHT22;40693;43.884;20.340;2023-12-20T02:00:45;77.70;2227.20
54796;DHT22;40693;43.884;20.340;2023-12-20T02:03:11;77.70;2227.20
54796;DHT22;40693;43.884;20.340;2023-12-20T02:05:38;77.70;2227.20
54796;DHT22;40693;43.884;20.340;2023-12-20T02:08:04;77.70;2227.20
54796;DHT22;40693;43.884;20.340;2023-12-20T02:10:31;77.70;2227.20
54796;DHT22;40693;43.884;20.340;2023-12-20T02:12:57;77.70;2227.20
54796;DHT22;40693;43.884;20.340;2023-12-20T02:15:23;77.70;2227.20
54796;DHT22;40693;43.884;20.340;2023-12-20T02:17:49;77.70;2227.20
54796;DHT22;40693;43.884;20.340;2023-12-20T02:20:15;77.60;2227.20
54796;DHT22;40693;43.884;20.340;2023-12-20T02:22:41;77.60;2227.20
54796;DHT22;40693;43.884;20.340;2023-12-20T02:25:07;77.60;2227.20
54796;DHT22;40693;43.884;20.340;2023-12-20T02:27:33;77.60;2227.20
54796;DHT22;40693;43.884;20.340;2023-12-20T02:30:00;77.50;2227.20
54796;DHT22;40693;43.884;20.340;2023-12-20T02:32:25;77.40;2227.20
54796;DHT22;40693;43.884;20.340;2023-12-20T02:34:55;77.50;2227.20
54796;DHT22;40693;43.884;20.340;2023-12-20T02:37:21;77.40;2227.20
54796;DHT22;40693;43.884;20.340;2023-12-20T02:39:47;77.30;2227.20
54796;DHT22;40693;43.884;20.340;2023-12-20T02:42:13;77.20;2227.20
54796;DHT22;40693;43.884;20.340;2023-12-20T02:44:38;77.10;2227.20
54796;DHT22;40693;43.884;20.340;2023-12-20T02:47:04;77.20;2227.20
54796;DHT22;40693;43.884;20.340;2023-12-20T02:49:30;77.20;2227.20
54796;DHT22;40693;43.884;20.340;2023-12-20T02:51:56;77.10;2227.20
54796;DHT22;40693;43.884;20.340;2023-12-20T02:54:22;77.10;2227.20
54796;DHT22;40693;43.884;20.340;2023-12-20T02:56:48;77.20;2227.20
54796;DHT22;40693;43.884;20.340;2023-12-20T02:59:13;77.20;2227.20
54796;DHT22;40693;43.884;20.340;2023-12-20T03:01:44;77.30;2227.20
54796;DHT22;40693;43.884;20.340;2023-12-20T03:04:10;77.30;2227.20
54796;DHT22;40693;43.884;20.340;2023-12-20T03:06:36;77.40;2227.20
54796;DHT22;40693;43.884;20.340;2023-12-20T03:09:01;77.40;2227.20
54796;DHT22;40693;43.884;20.340;2023-12-20T03:11:27;77.40;2227.20
54796;DHT22;40693;43.884;20.340;2023-12-20T03:13:57;77.40;2227.20
54796;DHT22;40693;43.884;20.340;2023-12-20T03:16:23;77.50;2227.20
54796;DHT22;40693;43.884;20.340;2023-12-20T03:18:48;77.50;2227.20
54796;DHT22;40693;43.884;20.340;2023-12-20T03:21:14;77.50;2227.20
54796;DHT22;40693;43.884;20.340;2023-12-20T03:23:40;77.50;2227.20
54796;DHT22;40693;43.884;20.340;2023-12-20T03:26:09;77.40;2227.20
54796;DHT22;40693;43.884;20.340;2023-12-20T03:28:36;77.30;2227.20
54796;DHT22;40693;43.884;20.340;2023-12-20T03:31:02;77.30;2227.20
54796;DHT22;40693;43.884;20.340;2023-12-20T03:33:29;77.30;2227.20
54796;DHT22;40693;43.884;20.340;2023-12-20T03:35:55;77.30;2227.20
54796;DHT22;40693;43.884;20.340;2023-12-20T03:38:21;77.30;2227.20
54796;DHT22;40693;43.884;20.340;2023-12-20T03:40:49;77.30;2227.20
54796;DHT22;40693;43.884;20.340;2023-12-20T03:43:15;77.30;2227.20
54796;DHT22;40693;43.884;20.340;2023-12-20T03:45:42;77.30;2227.20
54796;DHT22;40693;43.884;20.340;2023-12-20T03:48:08;77.40;2227.20
54796;DHT22;40693;43.884;20.340;2023-12-20T03:50:34;77.40;2227.20
54796;DHT22;40693;43.884;20.340;2023-12-20T03:53:00;77.40;2227.20
54796;DHT22;40693;43.884;20.340;2023-12-20T03:55:26;77.40;2227.20
54796;DHT22;40693;43.884;20.340;2023-12-20T03:57:52;77.40;2227.20
54796;DHT22;40693;43.884;20.340;2023-12-20T04:00:18;77.50;2227.20
54796;DHT22;40693;43.884;20.340;2023-12-20T04:02:44;77.50;2227.20
54796;DHT22;40693;43.884;20.340;2023-12-20T04:05:10;77.50;2227.20
54796;DHT22;40693;43.884;20.340;2023-12-20T04:07:36;77.60;2227.20
54796;DHT22;40693;43.884;20.340;2023-12-20T04:10:02;77.60;2227.20
54796;DHT22;40693;43.884;20.340;2023-12-20T04:12:29;77.60;2227.20
54796;DHT22;40693;43.884;20.340;2023-12-20T04:14:56;77.50;2227.20
54796;DHT22;40693;43.884;20.340;2023-12-20T04:17:21;77.50;2227.20
54796;DHT22;40693;43.884;20.340;2023-12-20T04:19:49;77.50;2227.20
54796;DHT22;40693;43.884;20.340;2023-12-20T04:22:15;77.50;2227.20
54796;DHT22;40693;43.884;20.340;2023-12-20T04:24:40;77.50;2227.20
54796;DHT22;40693;43.884;20.340;2023-12-20T04:27:08;77.50;2227.20
54796;DHT22;40693;43.884;20.340;2023-12-20T04:29:34;77.40;2227.20
54796;DHT22;40693;43.884;20.340;2023-12-20T04:32:00;77.30;2227.20
54796;DHT22;40693;43.884;20.340;2023-12-20T04:34:25;77.20;2227.20
54796;DHT22;40693;43.884;20.340;2023-12-20T04:36:52;77.30;2227.20
54796;DHT22;40693;43.884;20.340;2023-12-20T04:39:17;77.30;2227.20
54796;DHT22;40693;43.884;20.340;2023-12-20T04:41:43;77.40;2227.20
54796;DHT22;40693;43.884;20.340;2023-12-20T04:44:09;77.40;2227.20
54796;DHT22;40693;43.884;20.340;2023-12-20T04:46:35;77.40;2227.20
54796;DHT22;40693;43.884;20.340;2023-12-20T04:49:01;77.40;2227.20
54796;DHT22;40693;43.884;20.340;2023-12-20T04:51:27;77.40;2227.20
54796;DHT22;40693;43.884;20.340;2023-12-20T04:53:53;77.40;2227.20
54796;DHT22;40693;43.884;20.340;2023-12-20T04:56:18;77.40;2227.20
54796;DHT22;40693;43.884;20.340;2023-12-20T04:58:44;77.50;2227.20
54796;DHT22;40693;43.884;20.340;2023-12-20T05:01:10;77.50;2227.20
54796;DHT22;40693;43.884;20.340;2023-12-20T05:03:37;77.50;2227.20
54796;DHT22;40693;43.884;20.340;2023-12-20T05:06:03;77.50;2227.20
54796;DHT22;40693;43.884;20.340;2023-12-20T05:08:29;77.50;2227.20
54796;DHT22;40693;43.884;20.340;2023-12-20T05:10:55;77.60;2227.20
54796;DHT22;40693;43.884;20.340;2023-12-20T05:13:21;77.50;2227.20
54796;DHT22;40693;43.884;20.340;2023-12-20T05:15:46;77.60;2227.20
54796;DHT22;40693;43.884;20.340;2023-12-20T05:18:13;77.60;2227.20
54796;DHT22;40693;43.884;20.340;2023-12-20T05:20:39;77.60;2227.20
54796;DHT22;40693;43.884;20.340;2023-12-20T05:23:05;77.60;2227.20
54796;DHT22;40693;43.884;20.340;2023-12-20T05:25:31;77.60;2227.20
54796;DHT22;40693;43.884;20.340;2023-12-20T05:27:56;77.70;2227.20
54796;DHT22;40693;43.884;20.340;2023-12-20T05:30:22;77.70;2227.20
54796;DHT22;40693;43.884;20.340;2023-12-20T05:32:48;77.70;2227.20
54796;DHT22;40693;43.884;20.340;2023-12-20T05:35:14;77.70;2227.20
54796;DHT22;40693;43.884;20.340;2023-12-20T05:37:41;77.70;2227.20
54796;DHT22;40693;43.884;20.340;2023-12-20T05:40:07;102.40;2227.20
54796;DHT22;40693;43.884;20.340;2023-12-20T05:42:36;102.40;2227.20
54796;DHT22;40693;43.884;20.340;2023-12-20T05:45:02;102.40;2227.20
54796;DHT22;40693;43.884;20.340;2023-12-20T05:47:28;77.70;2227.20
54796;DHT22;40693;43.884;20.340;2023-12-20T05:49:54;77.70;2227.20
54796;DHT22;40693;43.884;20.340;2023-12-20T05:52:20;77.70;2227.20
54796;DHT22;40693;43.884;20.340;2023-12-20T05:54:45;77.70;2227.20
54796;DHT22;40693;43.884;20.340;2023-12-20T05:57:11;77.70;2227.20
54796;DHT22;40693;43.884;20.340;2023-12-20T05:59:37;77.70;2227.20
54796;DHT22;40693;43.884;20.340;2023-12-20T06:02:03;102.40;2227.20
54796;DHT22;40693;43.884;20.340;2023-12-20T06:04:30;102.40;2227.20
54796;DHT22;40693;43.884;20.340;2023-12-20T06:06:56;102.40;2227.20
54796;DHT22;40693;43.884;20.340;2023-12-20T06:09:21;102.40;2227.20
54796;DHT22;40693;43.884;20.340;2023-12-20T06:11:47;102.40;2227.20
54796;DHT22;40693;43.884;20.340;2023-12-20T06:14:13;102.50;2227.20
54796;DHT22;40693;43.884;20.340;2023-12-20T06:16:39;102.40;2227.20
54796;DHT22;40693;43.884;20.340;2023-12-20T06:19:05;102.50;2227.20
54796;DHT22;40693;43.884;20.340;2023-12-20T06:21:30;102.50;2227.20
54796;DHT22;40693;43.884;20.340;2023-12-20T06:23:56;102.60;2227.20
54796;DHT22;40693;43.884;20.340;2023-12-20T06:26:23;102.60;2227.20
54796;DHT22;40693;43.884;20.340;2023-12-20T06:28:48;102.60;2227.20
54796;DHT22;40693;43.884;20.340;2023-12-20T06:31:14;102.60;2227.20
54796;DHT22;40693;43.884;20.340;2023-12-20T06:33:40;102.60;2227.20
54796;DHT22;40693;43.884;20.340;2023-12-20T06:36:06;102.60;2227.20
54796;DHT22;40693;43.884;20.340;2023-12-20T06:38:32;102.50;2227.20
54796;DHT22;40693;43.884;20.340;2023-12-20T06:40:58;102.50;2227.20
54796;DHT22;40693;43.884;20.340;2023-12-20T06:43:24;102.50;2227.20
54796;DHT22;40693;43.884;20.340;2023-12-20T06:45:50;102.50;2227.20
54796;DHT22;40693;43.884;20.340;2023-12-20T06:48:16;102.60;2227.20
54796;DHT22;40693;43.884;20.340;2023-12-20T06:50:42;102.50;2227.20
54796;DHT22;40693;43.884;20.340;2023-12-20T06:53:08;102.40;2227.20
54796;DHT22;40693;43.884;20.340;2023-12-20T06:55:35;102.40;2227.20
54796;DHT22;40693;43.884;20.340;2023-12-20T06:58:02;102.40;2227.20
54796;DHT22;40693;43.884;20.340;2023-12-20T07:00:28;102.50;2227.20
54796;DHT22;40693;43.884;20.340;2023-12-20T07:02:54;102.50;2227.20
54796;DHT22;40693;43.884;20.340;2023-12-20T07:05:20;102.60;2227.20
54796;DHT22;40693;43.884;20.340;2023-12-20T07:07:46;102.60;2227.20
54796;DHT22;40693;43.884;20.340;2023-12-20T07:10:13;102.70;2227.20
54796;DHT22;40693;43.884;20.340;2023-12-20T07:12:39;102.80;2227.20
54796;DHT22;40693;43.884;20.340;2023-12-20T07:15:05;102.80;2227.20
54796;DHT22;40693;43.884;20.340;2023-12-20T07:17:34;102.90;2227.20
54796;DHT22;40693;43.884;20.340;2023-12-20T07:20:00;103.00;2227.20
54796;DHT22;40693;43.884;20.340;2023-12-20T07:22:30;103.00;2227.20
54796;DHT22;40693;43.884;20.340;2023-12-20T07:24:58;103.10;2227.20
54796;DHT22;40693;43.884;20.340;2023-12-20T07:27:24;103.20;2227.20
54796;DHT22;40693;43.884;20.340;2023-12-20T07:29:50;103.20;2227.20
54796;DHT22;40693;43.884;20.340;2023-12-20T07:32:15;103.30;2227.20
54796;DHT22;40693;43.884;20.340;2023-12-20T07:34:41;103.10;2227.20
54796;DHT22;40693;43.884;20.340;2023-12-20T07:37:07;103.00;2227.20
54796;DHT22;40693;43.884;20.340;2023-12-20T07:39:35;102.90;2227.20
54796;DHT22;40693;43.884;20.340;2023-12-20T07:42:01;102.80;2227.20
54796;DHT22;40693;43.884;20.340;2023-12-20T07:44:27;102.80;2227.20
54796;DHT22;40693;43.884;20.340;2023-12-20T07:46:52;102.80;2227.20
54796;DHT22;40693;43.884;20.340;2023-12-20T07:49:19;102.80;2227.20
54796;DHT22;40693;43.884;20.340;2023-12-20T07:51:45;102.80;2227.20
54796;DHT22;40693;43.884;20.340;2023-12-20T07:54:10;102.90;2227.20
54796;DHT22;40693;43.884;20.340;2023-12-20T07:56:36;103.00;2227.20
54796;DHT22;40693;43.884;20.340;2023-12-20T07:59:02;103.00;2227.20
54796;DHT22;40693;43.884;20.340;2023-12-20T08:01:28;103.10;2227.20
54796;DHT22;40693;43.884;20.340;2023-12-20T08:03:54;103.30;2227.20
54796;DHT22;40693;43.884;20.340;2023-12-20T08:06:19;128.00;2252.80
54796;DHT22;40693;43.884;20.340;2023-12-20T08:08:45;128.10;2252.80
54796;DHT22;40693;43.884;20.340;2023-12-20T08:11:11;128.10;2252.80
54796;DHT22;40693;43.884;20.340;2023-12-20T08:13:37;128.20;2252.80
54796;DHT22;40693;43.884;20.340;2023-12-20T08:16:02;128.30;2252.80
54796;DHT22;40693;43.884;20.340;2023-12-20T08:18:29;128.30;2252.80
54796;DHT22;40693;43.884;20.340;2023-12-20T08:20:55;128.40;2252.80
54796;DHT22;40693;43.884;20.340;2023-12-20T08:23:21;128.40;2252.80
54796;DHT22;40693;43.884;20.340;2023-12-20T08:25:47;128.50;2252.80
54796;DHT22;40693;43.884;20.340;2023-12-20T08:28:13;128.50;2252.80
54796;DHT22;40693;43.884;20.340;2023-12-20T08:30:39;128.60;2252.80
54796;DHT22;40693;43.884;20.340;2023-12-20T08:33:06;128.70;2252.80
54796;DHT22;40693;43.884;20.340;2023-12-20T08:35:36;128.80;2252.80
54796;DHT22;40693;43.884;20.340;2023-12-20T08:38:02;128.80;2252.80
54796;DHT22;40693;43.884;20.340;2023-12-20T08:40:29;128.90;2252.80
54796;DHT22;40693;43.884;20.340;2023-12-20T08:42:55;153.60;2252.80
54796;DHT22;40693;43.884;20.340;2023-12-20T08:45:21;153.80;2252.80
54796;DHT22;40693;43.884;20.340;2023-12-20T08:47:47;154.00;2252.80
54796;DHT22;40693;43.884;20.340;2023-12-20T08:50:12;154.10;2252.80
54796;DHT22;40693;43.884;20.340;2023-12-20T08:52:38;154.30;2252.80
54796;DHT22;40693;43.884;20.340;2023-12-20T08:55:04;179.30;2252.80
54796;DHT22;40693;43.884;20.340;2023-12-20T08:57:30;179.90;2252.80
54796;DHT22;40693;43.884;20.340;2023-12-20T08:59:57;205.10;2252.80
54796;DHT22;40693;43.884;20.340;2023-12-20T09:02:23;205.40;2252.80
54796;DHT22;40693;43.884;20.340;2023-12-20T09:04:49;205.70;2252.80
54796;DHT22;40693;43.884;20.340;2023-12-20T09:07:24;231.00;2252.80
54796;DHT22;40693;43.884;20.340;2023-12-20T09:09:51;256.40;2252.80
54796;DHT22;40693;43.884;20.340;2023-12-20T09:12:20;256.60;2252.80
54796;DHT22;40693;43.884;20.340;2023-12-20T09:14:50;256.60;2252.80
54796;DHT22;40693;43.884;20.340;2023-12-20T09:17:17;256.50;2252.80
54796;DHT22;40693;43.884;20.340;2023-12-20T09:19:44;256.50;2252.80
54796;DHT22;40693;43.884;20.340;2023-12-20T09:22:10;256.40;2227.20
54796;DHT22;40693;43.884;20.340;2023-12-20T09:24:36;256.10;2227.20
54796;DHT22;40693;43.884;20.340;2023-12-20T09:27:02;256.00;2227.20
54796;DHT22;40693;43.884;20.340;2023-12-20T09:29:28;231.10;2227.20
54796;DHT22;40693;43.884;20.340;2023-12-20T09:31:54;231.00;2252.80
54796;DHT22;40693;43.884;20.340;2023-12-20T09:34:20;230.80;2252.80
54796;DHT22;40693;43.884;20.340;2023-12-20T09:36:46;230.70;2252.80
54796;DHT22;40693;43.884;20.340;2023-12-20T09:39:16;230.50;2252.80
54796;DHT22;40693;43.884;20.340;2023-12-20T09:42:00;230.40;2252.80
54796;DHT22;40693;43.884;20.340;2023-12-20T09:44:26;230.60;2252.80
54796;DHT22;40693;43.884;20.340;2023-12-20T09:46:52;230.80;2252.80
54796;DHT22;40693;43.884;20.340;2023-12-20T09:49:20;231.00;2252.80
54796;DHT22;40693;43.884;20.340;2023-12-20T09:51:47;231.10;2252.80
54796;DHT22;40693;43.884;20.340;2023-12-20T09:54:14;231.10;2252.80
54796;DHT22;40693;43.884;20.340;2023-12-20T09:56:41;231.00;2252.80
54796;DHT22;40693;43.884;20.340;2023-12-20T09:59:06;231.10;2252.80
54796;DHT22;40693;43.884;20.340;2023-12-20T10:01:34;256.00;2252.80
54796;DHT22;40693;43.884;20.340;2023-12-20T10:04:00;256.40;2252.80
54796;DHT22;40693;43.884;20.340;2023-12-20T10:06:27;281.70;2252.80
54796;DHT22;40693;43.884;20.340;2023-12-20T10:08:53;307.50;2150.40
54796;DHT22;40693;43.884;20.340;2023-12-20T10:11:19;333.00;2048.00
54796;DHT22;40693;43.884;20.340;2023-12-20T10:13:47;333.70;1971.20
54796;DHT22;40693;43.884;20.340;2023-12-20T10:16:13;359.20;1868.80
54796;DHT22;40693;43.884;20.340;2023-12-20T10:18:39;384.50;1843.20
54796;DHT22;40693;43.884;20.340;2023-12-20T10:21:06;409.80;1817.60
54796;DHT22;40693;43.884;20.340;2023-12-20T10:23:36;410.50;1766.40
54796;DHT22;40693;43.884;20.340;2023-12-20T10:26:02;436.10;1689.60
54796;DHT22;40693;43.884;20.340;2023-12-20T10:28:33;461.30;1638.40
54796;DHT22;40693;43.884;20.340;2023-12-20T10:30:59;461.20;1561.60
54796;DHT22;40693;43.884;20.340;2023-12-20T10:33:29;461.50;1561.60
54796;DHT22;40693;43.884;20.340;2023-12-20T10:35:56;461.70;1561.60
54796;DHT22;40693;43.884;20.340;2023-12-20T10:38:21;461.70;1587.20
54796;DHT22;40693;43.884;20.340;2023-12-20T10:40:47;461.60;1587.20
54796;DHT22;40693;43.884;20.340;2023-12-20T10:43:15;461.50;1561.60
54796;DHT22;40693;43.884;20.340;2023-12-20T10:45:44;461.40;1561.60
54796;DHT22;40693;43.884;20.340;2023-12-20T10:48:10;461.40;1561.60
54796;DHT22;40693;43.884;20.340;2023-12-20T10:50:56;461.00;1561.60
54796;DHT22;40693;43.884;20.340;2023-12-20T10:53:22;460.80;1587.20
54796;DHT22;40693;43.884;20.340;2023-12-20T10:55:50;435.80;1587.20
54796;DHT22;40693;43.884;20.340;2023-12-20T10:58:20;435.60;1612.80
54796;DHT22;40693;43.884;20.340;2023-12-20T11:00:50;435.40;1612.80
54796;DHT22;40693;43.884;20.340;2023-12-20T11:03:19;435.20;1638.40
54796;DHT22;40693;43.884;20.340;2023-12-20T11:06:00;410.30;1638.40
54796;DHT22;40693;43.884;20.340;2023-12-20T11:08:41;410.20;1689.60
54796;DHT22;40693;43.884;20.340;2023-12-20T11:14:22;409.80;1689.60
54796;DHT22;40693;43.884;20.340;2023-12-20T11:16:49;384.90;1689.60
54796;DHT22;40693;43.884;20.340;2023-12-20T11:19:16;384.80;1715.20
54796;DHT22;40693;43.884;20.340;2023-12-20T11:21:42;384.70;1740.80
54796;DHT22;40693;43.884;20.340;2023-12-20T11:24:09;384.70;1740.80
54796;DHT22;40693;43.884;20.340;2023-12-20T11:26:35;384.80;1740.80
54796;DHT22;40693;43.884;20.340;2023-12-20T11:29:32;384.70;1740.80
54796;DHT22;40693;43.884;20.340;2023-12-20T11:34:46;384.40;1740.80
54796;DHT22;40693;43.884;20.340;2023-12-20T11:37:13;384.30;1766.40
54796;DHT22;40693;43.884;20.340;2023-12-20T11:39:39;384.10;1792.00
54796;DHT22;40693;43.884;20.340;2023-12-20T11:42:05;359.20;1817.60
54796;DHT22;40693;43.884;20.340;2023-12-20T11:44:32;359.10;1817.60
54796;DHT22;40693;43.884;20.340;2023-12-20T11:46:59;359.00;1843.20
54796;DHT22;40693;43.884;20.340;2023-12-20T11:49:24;358.90;1868.80
54796;DHT22;40693;43.884;20.340;2023-12-20T11:51:50;358.70;1843.20
54796;DHT22;40693;43.884;20.340;2023-12-20T11:54:17;358.60;1868.80
54796;DHT22;40693;43.884;20.340;2023-12-20T11:56:42;358.60;1894.40
54796;DHT22;40693;43.884;20.340;2023-12-20T11:59:09;358.60;1894.40
54796;DHT22;40693;43.884;20.340;2023-12-20T12:01:37;358.50;1868.80
54796;DHT22;40693;43.884;20.340;2023-12-20T12:04:06;333.70;1894.40
54796;DHT22;40693;43.884;20.340;2023-12-20T12:06:32;333.70;1894.40
54796;DHT22;40693;43.884;20.340;2023-12-20T12:08:58;333.60;1894.40
54796;DHT22;40693;43.884;20.340;2023-12-20T12:11:24;333.60;1894.40
54796;DHT22;40693;43.884;20.340;2023-12-20T12:13:50;333.60;1868.80
54796;DHT22;40693;43.884;20.340;2023-12-20T12:16:20;358.40;1894.40
54796;DHT22;40693;43.884;20.340;2023-12-20T12:18:54;358.70;1920.00
54796;DHT22;40693;43.884;20.340;2023-12-20T12:21:20;359.10;1868.80
54796;DHT22;40693;43.884;20.340;2023-12-20T12:23:46;384.10;1843.20
54796;DHT22;40693;43.884;20.340;2023-12-20T12:26:12;384.40;1817.60
54796;DHT22;40693;43.884;20.340;2023-12-20T12:28:40;384.20;1817.60
54796;DHT22;40693;43.884;20.340;2023-12-20T12:31:07;384.40;1792.00
54796;DHT22;40693;43.884;20.340;2023-12-20T12:33:33;384.60;1792.00
54796;DHT22;40693;43.884;20.340;2023-12-20T12:36:01;384.60;1766.40
54796;DHT22;40693;43.884;20.340;2023-12-20T12:38:27;384.60;1766.40
54796;DHT22;40693;43.884;20.340;2023-12-20T12:40:54;384.40;1766.40
54796;DHT22;40693;43.884;20.340;2023-12-20T12:43:20;384.40;1766.40
54796;DHT22;40693;43.884;20.340;2023-12-20T12:45:48;384.30;1766.40
54796;DHT22;40693;43.884;20.340;2023-12-20T12:48:14;384.30;1740.80
54796;DHT22;40693;43.884;20.340;2023-12-20T12:50:40;384.20;1766.40
54796;DHT22;40693;43.884;20.340;2023-12-20T12:53:06;384.10;1740.80
54796;DHT22;40693;43.884;20.340;2023-12-20T12:55:32;384.10;1766.40
54796;DHT22;40693;43.884;20.340;2023-12-20T12:57:58;384.00;1792.00
54796;DHT22;40693;43.884;20.340;2023-12-20T13:00:24;384.00;1766.40
54796;DHT22;40693;43.884;20.340;2023-12-20T13:02:51;359.30;1792.00
54796;DHT22;40693;43.884;20.340;2023-12-20T13:05:17;359.30;1792.00
54796;DHT22;40693;43.884;20.340;2023-12-20T13:07:43;359.30;1817.60
54796;DHT22;40693;43.884;20.340;2023-12-20T13:10:10;359.20;1817.60
54796;DHT22;40693;43.884;20.340;2023-12-20T13:12:36;359.20;1792.00
54796;DHT22;40693;43.884;20.340;2023-12-20T13:15:02;359.00;1817.60
54796;DHT22;40693;43.884;20.340;2023-12-20T13:17:29;358.90;1843.20
54796;DHT22;40693;43.884;20.340;2023-12-20T13:19:55;358.70;1817.60
54796;DHT22;40693;43.884;20.340;2023-12-20T13:22:21;358.50;1843.20
54796;DHT22;40693;43.884;20.340;2023-12-20T13:24:46;358.50;1843.20
54796;DHT22;40693;43.884;20.340;2023-12-20T13:27:12;358.40;1843.20
54796;DHT22;40693;43.884;20.340;2023-12-20T13:29:38;333.70;1843.20
54796;DHT22;40693;43.884;20.340;2023-12-20T13:32:04;333.60;1894.40
54796;DHT22;40693;43.884;20.340;2023-12-20T13:34:30;358.50;2329.60
54796;DHT22;40693;43.884;20.340;2023-12-20T13:36:56;358.60;2329.60
54796;DHT22;40693;43.884;20.340;2023-12-20T13:39:22;358.60;2022.40
54796;DHT22;40693;43.884;20.340;2023-12-20T13:41:48;358.50;1971.20
54796;DHT22;40693;43.884;20.340;2023-12-20T13:44:13;333.70;1945.60
54796;DHT22;40693;43.884;20.340;2023-12-20T13:46:41;333.50;1971.20
54796;DHT22;40693;43.884;20.340;2023-12-20T13:49:07;333.20;2022.40
54796;DHT22;40693;43.884;20.340;2023-12-20T13:51:32;333.00;2048.00
54796;DHT22;40693;43.884;20.340;2023-12-20T13:53:58;332.90;2073.60
54796;DHT22;40693;43.884;20.340;2023-12-20T13:56:25;332.90;2073.60
54796;DHT22;40693;43.884;20.340;2023-12-20T13:58:51;332.80;2073.60
54796;DHT22;40693;43.884;20.340;2023-12-20T14:01:17;332.90;2073.60
54796;DHT22;40693;43.884;20.340;2023-12-20T14:03:43;332.80;2099.20
54796;DHT22;40693;43.884;20.340;2023-12-20T14:06:08;332.80;2124.80
54796;DHT22;40693;43.884;20.340;2023-12-20T14:08:34;333.10;2124.80
54796;DHT22;40693;43.884;20.340;2023-12-20T14:11:01;332.80;2124.80
54796;DHT22;40693;43.884;20.340;2023-12-20T14:13:27;308.10;2124.80
54796;DHT22;40693;43.884;20.340;2023-12-20T14:15:53;308.10;2124.80
54796;DHT22;40693;43.884;20.340;2023-12-20T14:18:20;308.10;2150.40
54796;DHT22;40693;43.884;20.340;2023-12-20T14:20:46;308.00;2150.40
54796;DHT22;40693;43.884;20.340;2023-12-20T14:23:13;307.90;2124.80
54796;DHT22;40693;43.884;20.340;2023-12-20T14:25:42;307.90;2150.40
54796;DHT22;40693;43.884;20.340;2023-12-20T14:28:07;307.80;2124.80
54796;DHT22;40693;43.884;20.340;2023-12-20T14:30:33;307.60;2150.40
54796;DHT22;40693;43.884;20.340;2023-12-20T14:33:00;307.60;2176.00
54796;DHT22;40693;43.884;20.340;2023-12-20T14:35:26;307.50;2201.60
54796;DHT22;40693;43.884;20.340;2023-12-20T14:37:51;307.50;2201.60
54796;DHT22;40693;43.884;20.340;2023-12-20T14:40:18;307.50;2201.60